Latest Coastal Weather Observations for Bundaberg

IDQ60701

Issued at 4:12 am EST Saturday 28 May 2016 (issued every 10 minutes, with the page automatically refreshed every 10 minutes)

About coastal observations | Map of coastal stations | Coastal observations for QLD | Marine services | Other Formats
Station Details ID: 039128 Name: BUNDABERG AERO Lat: -24.91 Lon: 152.32 Height: 30.82 m
Data from the previous 72 hours. | See also: Recent months at Bundaberg
Date/Time
EST
Temp

°C
Wind Pressure Rain
since 9am
mm
Weather Cloud Vis
km
Sea
Height
m
Swell
Dir
 
Speed
knots
Gust
knots
hPa Trend Height
m
Period
s
Dir
28/04:00am 17.2 SW 6 9 1012.6 - 3.6 - - 10 - - - -
28/03:30am 17.4 SW 6 9 1012.6 - 3.6 - - 10 - - - -
28/03:00am 18.1 SW 5 8 1012.4 - 3.6 - Cloudy 10 - - - -
28/02:30am 18.6 SW 4 7 1011.9 - 3.6 - - 10 - - - -
28/02:00am 18.9 W 4 7 1011.8 - 3.6 - Partly cloudy 10 - - - -
28/01:30am 19.1 W 4 5 1011.5 - 3.6 - Cloudy 10 - - - -
28/01:00am 19.3 W 2 5 1011.1 - 3.4 - Partly cloudy 10 - - - -
28/12:30am 19.4 WNW 4 6 1011.6 - 2.8 - Partly cloudy 10 - - - -
28/12:00am 19.5 W 5 5 1011.5 - 2.8 Rain Mostly cloudy 10 - - - -
 
Date/Time
EST
Temp

°C
Wind Pressure Rain
since 9am
mm
Weather Cloud Vis
km
Sea
Height
m
Swell
Dir
 
Speed
knots
Gust
knots
hPa Trend Height
m
Period
s
Dir
27/11:30pm 19.6 SW 6 9 1012.0 - 2.8 - Partly cloudy 10 - - - -
27/11:00pm 19.7 WNW 5 8 1011.6 - 2.6 - Partly cloudy 10 - - - -
27/10:30pm 19.9 W 4 6 1011.4 - 2.4 - Partly cloudy 10 - - - -
27/10:00pm 20.1 W 10 13 1011.7 - 2.2 - Partly cloudy 10 - - - -
27/09:30pm 20.3 W 9 12 1011.5 - 2.0 - Partly cloudy 10 - - - -
27/09:00pm 21.7 WSW 8 11 1011.5 - 1.2 Showers Cloudy 10 - - - -
27/08:30pm 23.1 WSW 8 12 1011.0 - 0.6 - Partly cloudy 10 - - - -
27/08:00pm 22.9 WNW 1 3 1010.4 - 0.6 - Partly cloudy 10 - - - -
27/07:30pm 23.2 WNW 4 5 1010.2 - 0.0 - Partly cloudy 10 - - - -
27/07:00pm 23.4 NW 1 3 1009.6 - 0.0 - Partly cloudy 10 - - - -
27/06:30pm 23.4 NNW 4 5 1009.1 - 0.0 - Cloudy 10 - - - -
27/06:00pm 23.6 NNW 6 8 1008.4 - 0.0 - Partly cloudy 10 - - - -
27/05:30pm 24.4 N 5 6 1008.2 - 0.0 - Cloudy 10 - - - -
27/05:00pm 24.9 N 5 8 1008.0 - 0.0 - Partly cloudy 10 - - - -
27/04:30pm 25.1 N 8 11 1007.8 - 0.0 - Partly cloudy 10 - - - -
27/04:00pm 25.1 N 10 13 1007.5 - 0.0 - Partly cloudy 10 - - - -
27/03:30pm 27.1 N 11 14 1007.0 - 0.0 - Partly cloudy 10 - - - -
27/03:00pm 28.2 N 11 14 1006.7 - 0.0 - Cloudy 10 - - - -
27/02:30pm 27.4 NNE 11 13 1006.8 - 0.0 - Partly cloudy 10 - - - -
27/02:00pm 28.0 N 11 14 1006.9 - 0.0 - Partly cloudy 10 - - - -
27/01:30pm 27.6 N 11 15 1006.9 - 0.0 - Partly cloudy 10 - - - -
27/01:00pm 29.5 W 7 12 1007.4 - 0.0 - Partly cloudy 10 - - - -
27/12:30pm 28.9 W 8 13 1008.0 - 0.0 - Partly cloudy 10 - - - -
27/12:00pm 29.6 WSW 9 13 1008.4 - 0.0 - - 10 - - - -
27/11:30am 28.3 W 11 17 1008.8 - 0.0 - Partly cloudy 10 - - - -
27/11:00am 27.7 W 10 15 1009.5 - 0.0 - Partly cloudy 10 - - - -
27/10:30am 27.9 W 11 15 1010.0 - 0.0 - - 10 - - - -
27/10:00am 26.6 NW 11 14 1010.3 - 0.0 - - 10 - - - -
27/09:30am 25.7 NW 15 19 1010.6 - 0.0 - - 10 - - - -
27/09:00am 25.1 NW 12 16 1010.7 - 0.0 - Mostly clear 10 - - - -
27/08:30am 24.1 NW 9 12 1010.7 - 0.0 - - 10 - - - -
27/08:00am 22.9 NW 9 12 1010.6 - 0.0 - - 10 - - - -
27/07:30am 21.5 W 6 8 1010.7 - 0.0 - - 10 - - - -
27/07:00am 21.0 WNW 7 8 1010.4 - 0.0 - Partly cloudy 10 - - - -
27/06:30am 21.0 W 7 10 1010.3 - 0.0 - Partly cloudy 10 - - - -
27/06:00am 21.0 NNW 9 12 1009.4 - 0.0 - Mostly clear 10 - - - -
27/05:30am 21.2 NNW 12 16 1009.0 - 0.0 - Partly cloudy 10 - - - -
27/05:00am 21.5 NNW 13 16 1008.9 - 0.0 - - 10 - - - -
27/04:30am 21.3 NNW 13 17 1009.0 - 0.0 - - 10 - - - -
27/04:00am 21.4 NNW 13 17 1009.0 - 0.0 - - 10 - - - -
27/03:30am 21.4 NNW 12 14 1009.2 - 0.0 - - 10 - - - -
27/03:00am 21.5 NNW 13 18 1009.2 - 0.0 - - 10 - - - -
27/02:30am 21.6 NNW 14 20 1009.4 - 0.0 - - 10 - - - -
27/02:00am 21.6 NNW 14 17 1009.6 - 0.0 - - 10 - - - -
27/01:30am 21.6 NNW 14 19 1010.0 - 0.0 - - 10 - - - -
27/01:00am 21.5 NNW 13 18 1010.3 - 0.0 - - 10 - - - -
27/12:30am 21.3 NNW 13 15 1010.6 - 0.0 - - 10 - - - -
27/12:00am 21.4 NNW 12 15 1011.0 - 0.0 - - 10 - - - -
 
Date/Time
EST
Temp

°C
Wind Pressure Rain
since 9am
mm
Weather Cloud Vis
km
Sea
Height
m
Swell
Dir
 
Speed
knots
Gust
knots
hPa Trend Height
m
Period
s
Dir
26/11:30pm 21.3 NNW 12 15 1011.1 - 0.0 - - 10 - - - -
26/11:00pm 21.1 NNW 10 13 1011.4 - 0.0 - - 10 - - - -
26/10:30pm 21.2 NNW 11 14 1011.3 - 0.0 - - 10 - - - -
26/10:00pm 21.4 NNW 11 14 1011.6 - 0.0 - - 10 - - - -
26/09:30pm 21.6 NNW 12 16 1011.7 - 0.0 - - 10 - - - -
26/09:00pm 21.7 NW 11 15 1012.3 - 0.0 - - 10 - - - -
26/08:30pm 21.9 NNW 14 17 1011.9 - 0.0 - - 10 - - - -
26/08:00pm 22.0 NNW 12 16 1012.0 - 0.0 - - 10 - - - -
26/07:30pm 22.0 NNW 13 16 1012.1 - 0.0 - - 10 - - - -
26/07:00pm 22.0 N 13 17 1012.1 - 0.0 - - 10 - - - -
26/06:30pm 22.3 N 14 18 1012.0 - 0.0 - - 10 - - - -
26/06:00pm 22.5 N 13 17 1011.7 - 0.0 - - 10 - - - -
26/05:30pm 22.7 N 14 18 1011.8 - 0.0 - - 10 - - - -
26/05:00pm 23.2 N 14 19 1011.2 - 0.0 - - 10 - - - -
26/04:30pm 24.1 N 15 20 1010.9 - 0.0 - - 10 - - - -
26/04:00pm 24.9 N 17 22 1010.9 - 0.0 - - 10 - - - -
26/03:30pm 25.7 N 17 21 1011.2 - 0.0 - - 10 - - - -
26/03:00pm 25.8 N 17 22 1010.9 - 0.0 - - 10 - - - -
26/02:30pm 26.5 N 17 20 1011.1 - 0.0 - - 10 - - - -
26/02:00pm 26.8 N 16 20 1011.8 - 0.0 - - 10 - - - -
26/01:30pm 26.7 N 14 18 1012.3 - 0.0 - - 10 - - - -
26/01:00pm 27.0 N 14 18 1012.8 - 0.0 - - 10 - - - -
26/12:30pm 27.1 N 12 16 1013.5 - 0.0 - Partly cloudy 10 - - - -
26/12:00pm 26.3 NNW 13 16 1014.1 - 0.0 - Mostly clear 10 - - - -
26/11:30am 26.9 NNW 12 16 1014.8 - 0.0 - Partly cloudy 10 - - - -
26/11:00am 26.3 NNW 14 17 1015.4 - 0.0 - Partly cloudy 10 - - - -
26/10:30am 26.1 N 13 18 1016.0 - 0.0 - Partly cloudy 10 - - - -
26/10:00am 24.3 NNW 10 14 1016.5 - 0.0 - - 10 - - - -
26/09:30am 22.8 NNW 7 10 1016.8 - 0.0 - - 10 - - - -
26/09:00am 21.3 NNW 6 8 1016.8 - 0.0 - - 10 - - - -
26/08:30am 19.3 WNW 4 5 1016.8 - 0.0 - - 10 - - - -
26/08:00am 16.1 WNW 3 4 1016.8 - 0.0 - - 10 - - - -
26/07:30am 13.3 CALM 0 0 1016.9 - 0.0 - - 10 - - - -
26/07:00am 10.9 CALM 0 0 1016.8 - 0.0 - - 10 - - - -
26/06:30am 9.5 CALM 0 0 1016.6 - 0.0 - - 10 - - - -
26/06:00am 9.1 CALM 0 0 1016.4 - 0.0 - - 10 - - - -
26/05:30am 9.2 CALM 0 0 1016.3 - 0.0 - - 10 - - - -
26/05:00am 9.5 CALM 0 0 1016.1 - 0.0 - - 10 - - - -
26/04:30am 9.1 CALM 0 3 1016.2 - 0.0 - - 10 - - - -
26/04:00am 9.0 WSW 5 5 1016.2 - 0.0 - - 10 - - - -
26/03:30am 8.8 WSW 3 4 1016.3 - 0.0 - - 10 - - - -
26/03:00am 9.9 CALM 0 4 1016.3 - 0.0 - - 10 - - - -
26/02:30am 10.2 CALM 0 0 1016.4 - 0.0 - - 10 - - - -
26/02:00am 10.2 CALM 0 0 1016.6 - 0.0 - - 10 - - - -
26/01:30am 9.8 CALM 0 0 1016.7 - 0.0 - - 10 - - - -
26/01:00am 10.8 CALM 0 0 1016.8 - 0.0 - - 10 - - - -
26/12:30am 10.8 CALM 0 0 1017.0 - 0.0 - - 10 - - - -
26/12:00am 11.0 SSW 1 3 1017.3 - 0.0 - - 10 - - - -
 
Date/Time
EST
Temp

°C
Wind Pressure Rain
since 9am
mm
Weather Cloud Vis
km
Sea
Height
m
Swell
Dir
 
Speed
knots
Gust
knots
hPa Trend Height
m
Period
s
Dir
25/11:30pm 11.5 CALM 0 0 1017.5 - 0.0 - - 10 - - - -
25/11:00pm 11.1 CALM 0 0 1017.5 - 0.0 - - 10 - - - -
25/10:30pm 11.9 SW 4 5 1017.7 - 0.0 - - 10 - - - -
25/10:00pm 11.1 SW 3 4 1017.5 - 0.0 - - 10 - - - -
25/09:30pm 12.4 WSW 3 4 1017.4 - 0.0 - - 10 - - - -
25/09:00pm 11.1 CALM 0 0 1017.5 - 0.0 - - 10 - - - -
25/08:30pm 14.7 ENE 5 6 1017.3 - 0.0 - - 10 - - - -
25/08:00pm 12.9 ESE 6 7 1017.0 - 0.0 - - 10 - - - -
25/07:30pm 14.3 CALM 0 0 1017.0 - 0.0 - - 10 - - - -
25/07:00pm 16.0 CALM 0 0 1016.8 - 0.0 - - 10 - - - -
25/06:30pm 16.6 NW 4 4 1016.4 - 0.0 - - 10 - - - -
25/06:00pm 17.1 CALM 0 0 1016.1 - 0.0 - - 10 - - - -
25/05:30pm 20.6 NE 3 6 1015.6 - 0.0 - - 10 - - - -
25/05:00pm 21.5 ENE 4 5 1015.3 - 0.0 - - 10 - - - -
25/04:30pm 23.2 NE 7 8 1014.9 - 0.0 - - 10 - - - -
25/04:00pm 24.5 ENE 8 9 1014.9 - 0.0 - - 10 - - - -
25/03:30pm 26.6 S 4 7 1014.8 - 0.0 - - 10 - - - -
25/03:00pm 26.9 SE 5 8 1014.8 - 0.0 - - 10 - - - -
25/02:30pm 26.8 S 6 8 1014.9 - 0.0 - - 10 - - - -
25/02:00pm 26.7 SSW 6 9 1014.9 - 0.0 - - 10 - - - -
25/01:30pm 26.3 SSW 5 9 1015.2 - 0.0 - - 10 - - - -
25/01:00pm 26.3 SW 6 10 1015.6 - 0.0 - - 10 - - - -
25/12:30pm 26.2 SW 6 10 1016.0 - 0.0 - - 10 - - - -
25/12:00pm 25.6 SW 6 12 1016.6 - 0.0 - - 10 - - - -
25/11:30am 24.8 SW 7 11 1017.1 - 0.0 - - 10 - - - -
25/11:00am 23.4 SW 5 10 1017.8 - 0.0 - - 10 - - - -
25/10:30am 22.4 SW 5 8 1018.3 - 0.0 - - 10 - - - -
25/10:00am 21.3 SW 6 9 1018.4 - 0.0 - - 10 - - - -
25/09:30am 19.8 SW 6 8 1018.2 - 0.0 - - 10 - - - -
25/09:00am 17.5 SW 8 11 1018.5 - 0.0 - - 10 - - - -
25/08:30am 16.2 SW 9 12 1018.4 - 0.0 - - 10 - - - -
25/08:00am 14.4 SW 3 6 1018.2 - 0.0 - - 10 - - - -
25/07:30am 13.0 SW 3 5 1018.2 - 0.0 - - 10 - - - -
25/07:00am 11.7 SW 4 5 1017.9 - 0.0 - - 10 - - - -
25/06:30am 12.3 SW 6 9 1017.4 - 0.0 - - 10 - - - -
25/06:00am 12.8 SW 7 9 1017.3 - 0.0 - - 10 - - - -
25/05:30am 13.4 SW 9 10 1016.9 - 0.0 - - 10 - - - -
25/05:00am 14.2 SW 8 11 1016.9 - 0.0 - - 10 - - - -
25/04:30am 14.4 WSW 7 9 1016.8 - 0.0 - - 10 - - - -

Other Formats:

Comma delimited format used in spreadsheet applications
http://www.bom.gov.au/fwo/IDQ60701/IDQ60701.94387.axf

JavaScript Object Notation format (JSON) in row-major order
http://www.bom.gov.au/fwo/IDQ60701/IDQ60701.94387.json